Weather observations for the past three days for
Woodward, West Woodward Airport
Metric (Imperial)
Date Time (cdt) Wind (kph) Vis. (km) Weather Sky Cond. Temperature (ºC) Relative Humidity Wind Chill (°C) Heat Index (°C) Pressure Precipitation (cm)
Air Dwpt 6 hour altimeter (cm) sea level (mb) 1 hr 3 hr 6 hr
Max. Min.
06 04:15 N 20 16.09 Overcast OVC012 6.7 3.5 80% 3 76.33 0.0
06 03:55 N 24 G 37 16.09 Overcast SCT014 SCT024 OVC045 7 3.3 78% 4 76.25 0.0
06 03:35 N 28 G 33 16.09 Overcast SCT021 BKN028 OVC045 7.1 3.1 76% 3 76.25 0.0
06 03:15 N 26 16.09 Overcast SCT023 SCT028 OVC045 7.9 3.1 72% 4 76.25 0.0
06 02:55 NE 17 16.09 Overcast BKN045 OVC050 8 2.7 70% 6 76.25 0.0
06 02:35 NE 15 16.09 Overcast BKN043 OVC050 8.5 2.5 66% 6 76.25 0.0
06 02:15 N 11 16.09 Overcast OVC041 8.5 2.3 65% 7 76.28 0.0
06 01:55 N 9 16.09 Overcast OVC041 8.1 2.5 68% 7 76.28 0.0
06 01:35 N 6 16.09 Overcast OVC041 8 2.4 68% 76.28 0.0
06 01:15 Calm 16.09 Overcast OVC039 8.1 2.1 66% 76.23 0.0
06 00:55 E 13 16.09 Overcast OVC039 8.3 1.8 10.8 8.3 64% 6 76.15 0.0
06 00:35 E 17 16.09 Overcast OVC041 8.3 1.7 63% 6 76.1 0.0
06 00:15 E 19 16.09 Overcast OVC041 8.5 1.5 62% 6 76.15 0.0
05 23:55 E 22 16.09 Overcast OVC041 8.6 1.5 61% 6 76.12 0.0
05 23:35 E 19 16.09 Overcast OVC041 8.6 1.8 63% 6 76.1 0.0
05 23:15 E 19 16.09 Light Rain BKN041 OVC047 8.7 1.9 63% 6 76.12 0.0
05 22:55 E 19 16.09 Light Rain BKN039 OVC047 9 1.5 60% 7 76.1 0.0
05 22:35 E 13 16.09 Overcast OVC039 9.3 1.8 60% 8 76.1 0.0
05 22:15 NE 17 16.09 Overcast OVC037 9.3 1.9 60% 7 76.1 0.0
05 21:55 NE 20 16.09 Overcast OVC037 9.3 2.1 61% 7 76.05 0.0
05 21:35 NE 22 16.09 Overcast OVC037 9.4 2.7 63% 7 76.05 0.0
05 21:15 NE 22 16.09 Overcast OVC037 9.5 2.6 62% 7 76.02 0.0
05 20:55 NE 22 16.09 Overcast OVC037 9.6 2.7 62% 7 76.05 0.0
05 20:35 NE 20 16.09 Overcast OVC035 9.9 2.7 61% 7 76.02 0.0
05 20:15 NE 20 16.09 Overcast OVC031 10 3 62% 8 76.02 0.0
05 19:55 NE 22 G 28 16.09 Overcast OVC033 10.2 3 61% 76.02 0.0
05 19:35 NE 22 G 28 16.09 Overcast OVC035 10.5 2.6 58% 76 0.0
05 19:15 NE 19 G 30 16.09 Overcast OVC035 10.6 2.7 58% 76 0.0
05 18:55 NE 22 16.09 Overcast OVC033 10.8 3 13.6 10.8 59% 76 0.0
05 18:35 NE 20 G 26 16.09 Overcast OVC033 11.1 3 58% 76 0.0
05 18:15 NE 22 16.09 Overcast OVC037 11.5 2.9 56% 75.92 0.0
05 17:55 NE 26 16.09 Overcast OVC035 11.5 2.8 55% 75.92 0.0
05 17:35 NE 24 G 31 16.09 Overcast OVC037 11.6 2.7 55% 75.95 0.0
05 17:15 NE 22 G 31 16.09 Overcast OVC037 11.8 2.4 53% 75.97 0.0
05 16:55 NE 20 16.09 Overcast OVC037 12.2 2.5 52% 75.95 0.0
05 16:35 NE 20 16.09 Overcast OVC035 12.2 2.3 51% 75.92 0.0
05 16:15 NE 26 G 35 16.09 Overcast OVC035 12.6 2.5 50% 75.92 0.0
05 15:55 NE 28 16.09 Overcast OVC033 12.3 2 50% 75.92 0.0
05 15:35 NE 31 16.09 Overcast OVC033 12.5 2.2 50% 75.92 0.0
05 15:15 NE 33 G 43 16.09 Overcast and Breezy OVC035 12.5 2.2 50% 75.95 0.0
05 14:55 NE 35 G 43 16.09 Overcast and Breezy OVC035 12.5 2.2 50% 75.92 0.0
05 14:35 NE 33 G 41 16.09 Overcast and Breezy OVC037 13.4 2.3 47% 75.92 0.0
05 14:15 NE 31 G 44 16.09 Overcast OVC037 13 1.9 47% 75.92 0.0
05 13:55 NE 31 G 39 16.09 Overcast OVC037 13.2 1.6 46% 75.92 0.0
05 13:35 NE 33 G 43 16.09 Overcast and Breezy OVC037 13.1 1.4 45% 75.92 0.0
05 13:15 N 41 G 46 16.09 Overcast and Breezy OVC037 13.4 1.2 44% 75.92 0.0
05 12:55 NE 37 G 44 16.09 Overcast and Breezy OVC037 13.4 1.1 13.5 12.2 43% 75.9 0.0
05 12:35 NE 35 G 46 16.09 Overcast and Breezy OVC037 12.8 0.9 44% 75.92 0.0
05 12:15 N 28 G 43 16.09 Overcast OVC035 12.8 1 45% 75.92 0.0
05 11:55 N 35 G 43 16.09 Overcast and Breezy OVC035 12.6 1.2 46% 75.9 0.0
05 11:35 N 30 G 39 16.09 Overcast OVC031 12.5 1.7 48% 75.9 0.0
05 11:15 NE 31 G 44 16.09 Overcast OVC031 12.5 1.6 48% 75.87 0.0
05 10:55 NE 31 G 46 16.09 Overcast OVC029 12.2 1.8 49% 75.84 0.0
05 10:35 NE 31 G 48 16.09 Overcast OVC029 12.3 2.2 50% 75.82 0.0
05 09:55 NE 31 G 41 16.09 Overcast OVC029 12.3 1.2 47% 75.77 0.0
05 09:35 NE 37 G 50 16.09 Overcast and Breezy OVC029 12.3 1 46% 75.74 0.0
05 09:15 NE 26 G 41 16.09 Overcast OVC029 12.3 1 46% 75.72 0.0
05 08:55 NE 30 G 43 16.09 Overcast OVC027 12.5 0.8 45% 75.69 0.0
05 08:35 NE 37 G 52 16.09 Overcast and Breezy OVC027 12.5 1 46% 75.64 0.0
05 08:15 NE 35 G 43 16.09 Overcast and Breezy OVC029 12.6 2 49% 75.64 0.0
05 07:55 NE 41 G 57 16.09 Overcast and Breezy OVC029 12.8 1.8 47% 75.62 0.0
05 07:35 NE 35 G 54 16.09 Overcast and Breezy OVC027 12.8 2.3 49% 75.54 0.0
05 07:15 N 44 G 57 16.09 Overcast and Windy OVC027 13 3 51% 75.51 0.0
05 06:55 NE 37 G 57 16.09 Overcast and Breezy OVC027 13.5 4.6 18.8 13.5 55% 75.49 0.0
05 06:35 N 50 G 57 16.09 Overcast and Windy OVC025 14 5.4 56% 75.46 0.0
05 06:15 N 41 G 52 16.09 Overcast and Breezy OVC023 14.3 6 58% 75.44 0.0
05 05:55 N 41 G 46 16.09 Overcast and Breezy OVC021 14.8 7.8 63% 75.41 0.0
05 05:35 N 30 G 35 16.09 Overcast OVC019 15.4 9.3 67% 75.36 0.0
05 05:15 N 35 G 46 16.09 Overcast and Breezy OVC019 15.8 9.8 68% 75.29 0.0
05 04:55 N 35 G 50 16.09 Overcast and Breezy OVC015 16.3 10.3 68% 75.21 0.0
05 04:35 NE 26 G 41 16.09 Overcast OVC013 17.6 14.6 83% 75.18 0.0
05 04:15 NE 26 G 33 16.09 Partly Cloudy SCT013 16.8 14.5 86% 75.16 0.0
05 03:55 NE 26 G 31 16.09 Fair CLR 16.5 14 85% 75.11 0.0
05 03:35 N 20 16.09 Fair CLR 15.9 13.4 85% 75.11 0.0
05 03:15 N 13 16.09 Fair CLR 14.4 10.1 76% 75.11 0.0
05 02:55 NW 13 16.09 Fair CLR 14.9 8.3 65% 75.08 0.0
05 02:35 NW 19 16.09 Fair CLR 14.2 3 47% 75.11 0.0
05 02:15 SW 15 16.09 Fair CLR 15.6 1.9 40% 75.06 0.0
05 01:55 SW 9 16.09 Fair CLR 16.2 1.8 38% 75.06 0.0
05 01:35 W 7 16.09 Fair CLR 16.4 1.9 38% 75.08 0.0
05 01:15 SE 6 16.09 Fair CLR 17.6 2 35% 75.11 0.0
05 00:55 SW 13 16.09 Fair CLR 19 1.2 29.8 19 31% 75.06 0.0
05 00:35 SW 17 16.09 Fair CLR 20.3 1.3 28% 75.06 0.0
05 00:15 S 17 16.09 Fair CLR 20.7 1.6 28% 75.06 0.0
04 23:55 S 13 16.09 Fair CLR 21.4 2.1 28% 75.08 0.0
04 23:35 SW 7 16.09 Fair CLR 20.2 2.3 31% 75.08 0.0
04 23:15 SW 9 16.09 Fair CLR 21.1 2.5 29% 75.08 0.0
04 22:55 S 13 16.09 Fair CLR 20.9 3 31% 75.08 0.0
04 22:35 S 11 16.09 Fair CLR 21 3.1 31% 75.08 0.0
04 22:15 SE 6 16.09 Fair CLR 20.9 5.1 36% 75.06 0.0
04 21:55 Calm 16.09 Fair CLR 23 4.7 31% 75.08 0.0
04 21:35 Calm 16.09 Fair CLR 24.8 4.1 26% 25 75.06 0.0
04 21:15 Calm 16.09 Fair CLR 24.5 4 27% 25 75.06 0.0
04 20:55 N 6 16.09 Fair CLR 23.9 4.7 29% 25 75.06 0.0
04 20:35 Calm 16.09 Fair CLR 27.3 2.1 20% 26 75.06 0.0
04 20:15 Calm 16.09 Fair CLR 26.7 4.4 24% 26 75.06 0.0
04 19:55 S 7 16.09 Fair CLR 27.6 5 24% 27 75.08 0.0
04 19:35 Calm 16.09 Fair CLR 28.5 4.6 22% 27 75.08 0.0
04 19:15 E 15 16.09 Fair CLR 29.1 4.7 21% 28 75.08 0.0
04 18:55 E 11 16.09 Fair CLR 29.9 3.7 31.7 27 19% 28 75.08 0.0
04 18:35 E 6 16.09 Fair CLR 30.7 2.8 17% 29 75.08 0.0
04 18:15 Calm 16.09 Fair CLR 31 1.6 15% 29 75.11 0.0
04 17:55 Calm 16.09 Fair CLR 31.2 1.6 15% 29 75.11 0.0
04 17:35 Calm 16.09 Fair CLR 31 1.5 15% 29 75.11 0.0
04 17:15 SW 7 16.09 Fair CLR 31.5 1.6 15% 29 75.16 0.0
04 16:55 W 6 16.09 Fair CLR 31.5 2 15% 29 75.16 0.0
04 16:35 Calm 16.09 Fair CLR 31.2 2.7 16% 29 75.18 0.0
04 16:15 Calm 16.09 Fair CLR 30.5 2.7 17% 29 75.23 0.0
04 15:55 W 11 16.09 Fair CLR 30.8 3.3 17% 29 75.23 0.0
04 15:35 SW 11 16.09 Fair CLR 30 3.6 19% 28 75.26 0.0
04 15:15 W 17 16.09 Fair CLR 30.1 3.8 19% 28 75.29 0.0
04 14:55 W 11 16.09 Fair CLR 29.1 3.6 20% 28 75.31 0.0
04 14:35 W 11 16.09 Fair CLR 28.9 5.1 22% 27 75.34 0.0
04 14:15 SW 13 G 30 16.09 Fair CLR 28.2 5 23% 27 75.36 0.0
04 13:55 SW 17 16.09 Fair CLR 27.5 5 24% 27 75.39 0.0
04 13:35 W 19 16.09 Fair CLR 27.4 5.1 24% 26 75.41 0.0
04 13:15 W 17 16.09 Fair CLR 27.1 4.7 24% 26 75.41 0.0
04 12:55 W 19 G 30 16.09 Fair CLR 27 5.2 27.1 15.7 25% 26 75.44 0.0
04 12:35 SW 22 G 28 16.09 Fair CLR 26.8 5.8 26% 26 75.44 0.0
04 12:15 SW 15 G 28 16.09 Fair CLR 26 6 28% 26 75.46 0.0
04 11:55 SW 20 G 28 16.09 Fair CLR 25.4 6.4 30% 26 75.46 0.0
04 11:35 SW 13 16.09 Fair CLR 24.4 6.7 32% 25 75.46 0.0
04 11:15 SW 20 G 31 16.09 Fair CLR 23.6 7 34% 75.46 0.0
04 10:55 SW 17 16.09 Fair CLR 23.1 7 36% 75.46 0.0
04 10:35 SW 20 G 30 16.09 Fair CLR 22.5 6.8 36% 75.46 0.0
04 10:15 SW 20 G 26 16.09 Fair CLR 22 6.7 37% 75.49 0.0
04 09:55 SW 20 16.09 Fair CLR 21.2 6.7 39% 75.49 0.0
04 09:35 SW 26 16.09 Fair CLR 20.7 7 41% 75.51 0.0
04 09:15 SW 31 G 41 16.09 Fair CLR 20.5 6.9 41% 75.49 0.0
04 08:55 SW 28 G 35 16.09 Fair CLR 20 7.2 44% 75.49 0.0
04 08:35 SW 26 G 37 16.09 Fair CLR 19 7.1 46% 75.49 0.0
04 08:15 S 26 16.09 Fair CLR 18 7 49% 75.49 0.0
04 07:55 SW 28 G 39 16.09 Fair CLR 17.1 6.8 51% 75.49 0.0
04 07:35 SW 26 G 35 16.09 Fair CLR 16.2 6.6 53% 75.49 0.0
04 07:15 SW 26 16.09 Fair CLR 15.8 6.5 54% 75.46 0.0
04 06:55 SW 28 16.09 Fair CLR 15.7 6.4 19.5 15.7 54% 75.46 0.0
04 06:35 S 26 16.09 Fair CLR 16.1 6.3 52% 75.49 0.0
04 06:15 S 28 G 37 16.09 Fair CLR 16.2 6.3 52% 75.51 0.0
04 05:55 SW 24 16.09 Fair CLR 16.6 6.3 51% 75.51 0.0
04 05:35 S 24 G 39 16.09 Fair CLR 16.9 6.3 50% 75.54 0.0
04 05:15 S 26 16.09 Fair CLR 17 6.2 49% 75.54 0.0
04 04:55 S 26 G 37 16.09 Fair CLR 17.1 6.1 49% 75.57 0.0
04 04:35 S 28 G 35 16.09 Fair CLR 17.5 6 47% 75.59 0.0
04 04:15 S 28 G 39 16.09 Fair CLR 17.7 6 46% 75.59 0.0
04 03:55 S 28 G 39 16.09 Fair CLR 17.8 5.8 46% 75.62 0.0
04 03:35 S 31 G 43 16.09 Fair CLR 17.8 5.6 45% 75.62 0.0
04 03:15 S 31 G 41 16.09 Fair CLR 17.8 5.2 44% 75.64 0.0
04 02:55 S 31 G 43 16.09 Fair CLR 17.7 4.8 43% 75.64 0.0
04 02:35 S 31 G 41 16.09 Fair CLR 17.8 4.5 42% 75.67 0.0
04 02:15 S 30 G 43 16.09 Fair CLR 17.7 4.1 41% 75.67 0.0
04 01:55 S 31 G 41 16.09 Fair CLR 18 3.7 39% 75.69 0.0
04 01:35 S 28 G 37 16.09 Fair CLR 18.4 3.6 38% 75.69 0.0
04 01:15 S 33 G 41 16.09 Fair and Breezy CLR 19.1 3.5 36% 75.69 0.0
04 00:55 S 33 G 43 16.09 Fair and Breezy CLR 19.5 3.5 28 19.5 35% 75.72 0.0
04 00:35 S 31 G 43 16.09 Fair CLR 20.1 3.4 33% 75.72 0.0
04 00:15 S 37 G 44 16.09 Fair and Breezy CLR 20.9 3.3 31% 75.72 0.0
03 23:55 S 33 G 43 16.09 Fair and Breezy CLR 21.2 3.1 30% 75.74 0.0
03 23:35 S 30 G 37 16.09 Fair CLR 21 2.8 30% 75.77 0.0
03 23:15 S 31 G 43 16.09 Fair CLR 21 2.6 30% 75.77 0.0
03 22:55 S 30 16.09 Fair CLR 21.1 2.6 30% 75.77 0.0
03 22:35 S 28 16.09 Fair CLR 21.3 2.5 29% 75.77 0.0
03 22:15 S 24 16.09 Fair CLR 21.3 2.5 29% 75.77 0.0
03 21:55 S 22 16.09 Fair CLR 21.5 2.5 29% 75.77 0.0
03 21:35 S 20 16.09 Fair CLR 21.6 2.5 28% 75.77 0.0
03 21:15 S 20 16.09 Fair CLR 22.5 2.5 27% 75.77 0.0
03 20:55 S 24 G 31 16.09 Fair CLR 23.6 2.2 25% 75.77 0.0
03 20:35 S 22 16.09 Fair CLR 24.7 1.9 23% 25 75.77 0.0
03 20:15 S 22 16.09 Fair CLR 25.9 1.7 21% 25 75.77 0.0
03 19:55 S 22 G 35 16.09 Fair CLR 26.8 1.4 19% 26 75.77 0.0
03 19:35 S 33 G 39 16.09 Fair and Breezy CLR 27.6 1.3 18% 26 75.77 0.0
03 19:15 S 35 G 43 16.09 Fair and Breezy CLR 28 1.2 18% 27 75.77 0.0
03 18:55 S 28 G 41 16.09 Fair CLR 27.8 1.1 29.2 26.6 18% 27 75.79 0.0
03 18:35 SW 30 G 44 16.09 Fair CLR 27.9 1 17% 27 75.82 0.0
03 18:15 S 33 G 43 16.09 Fair and Breezy CLR 28.3 1.2 17% 27 75.82 0.0
03 17:55 S 39 G 50 16.09 Fair and Breezy CLR 28.9 1.7 17% 27 75.84 0.0
03 17:35 S 30 G 50 16.09 Fair CLR 28.8 1.6 17% 27 75.84 0.0
03 17:15 SW 33 G 52 16.09 Fair and Breezy CLR 28.9 1.7 17% 27 75.9 0.0
03 16:55 S 37 G 48 16.09 Fair and Breezy CLR 28.7 1.7 17% 27 75.92 0.0
03 16:35 SW 39 G 52 16.09 Fair and Breezy CLR 28.8 2 18% 27 75.95 0.0
03 16:15 S 30 G 52 16.09 Fair CLR 28.9 1.7 17% 27 76 0.0
03 15:55 S 28 G 44 16.09 Fair CLR 28.6 1.6 17% 27 76.02 0.0
03 15:35 SW 31 G 44 16.09 Fair CLR 28.5 1.7 18% 27 76.05 0.0
03 15:15 SW 33 G 46 16.09 Fair and Breezy CLR 28.6 1.6 17% 27 76.07 0.0
03 14:55 SW 30 G 50 16.09 Fair CLR 28.3 1.5 18% 27 76.1 0.0
03 14:35 SW 30 G 44 16.09 Fair CLR 28 1.2 18% 27 76.12 0.0
03 14:15 SW 41 G 56 16.09 Fair and Breezy CLR 28 1.5 18% 27 76.17 0.0
03 13:55 SW 31 G 50 16.09 Fair CLR 27.5 1.3 18% 26 76.17 0.0
03 13:35 SW 31 G 43 16.09 Fair CLR 27.7 1.7 19% 27 76.2 0.0
03 13:15 SW 30 G 46 16.09 Fair CLR 26.8 1.1 19% 26 76.23 0.0
03 12:55 SW 37 G 44 16.09 Fair and Breezy CLR 26.7 0.4 26.7 7.8 18% 26 76.28 0.0
03 12:35 SW 30 G 44 16.09 Fair CLR 26.5 0.2 18% 26 76.3 0.0
03 12:15 SW 28 G 44 16.09 Fair CLR 26.4 0.1 18% 26 76.33 0.0
03 11:55 SW 30 G 39 16.09 Fair CLR 25.8 0.5 19% 25 76.33 0.0
03 11:35 SW 26 G 39 16.09 Fair CLR 25.5 2.7 23% 25 76.35 0.0
03 11:15 SW 31 G 37 16.09 Fair CLR 24.6 3.3 25% 25 76.38 0.0
03 10:55 SW 19 16.09 Fair CLR 23.8 4.3 28% 76.38 0.0
03 10:35 SW 19 G 30 16.09 Fair CLR 22.5 4.5 31% 76.4 0.0
03 10:15 SW 19 16.09 Fair CLR 21.2 4.5 34% 76.4 0.0
03 09:55 SW 17 16.09 Fair CLR 18.8 4.3 39% 76.4 0.0
03 09:35 SW 15 16.09 Fair CLR 16.6 3.9 43% 76.43 0.0
03 09:15 SW 13 16.09 Fair CLR 15 3.3 46% 76.4 0.0
03 08:55 SW 17 16.09 Fair CLR 13.8 3 48% 76.4 0.0
03 08:35 SW 17 16.09 Fair CLR 12.2 3.1 54% 76.4 0.0
03 08:15 SW 20 16.09 Fair CLR 10.9 3.3 60% 76.4 0.0
03 07:55 SW 20 16.09 Fair CLR 9.6 3.6 66% 7 76.4 0.0
03 07:35 SW 19 16.09 Fair CLR 8.5 3.6 72% 6 76.38 0.0
03 07:15 SW 17 16.09 Fair CLR 8.3 3.5 72% 6 76.35 0.0
03 06:55 SW 17 16.09 Fair CLR 8 3.2 13.7 7.6 72% 6 76.33 0.0
03 06:35 SW 20 16.09 Fair CLR 7.6 3 73% 5 76.33 0.0
03 06:15 SW 17 16.09 Fair CLR 8.2 3.1 71% 6 76.33 0.0
03 05:55 SW 19 16.09 Fair CLR 8.3 3.5 72% 6 76.33 0.0
03 05:35 SW 19 16.09 Fair CLR 8.7 3.5 70% 6 76.33 0.0
03 05:15 SW 17 16.09 Fair CLR 9.3 3.7 68% 7 76.35 0.0
03 04:55 SW 13 16.09 Fair CLR 11.2 4 61% 76.38 0.0
03 04:35 S 19 16.09 Fair CLR 12.2 4 58% 76.38 0.0
Date Time (cdt) Wind (kph) Vis. (km) Weather Sky Cond. Air Dwpt Max. Min. Relative Humidity Wind Chill (°C) Heat Index (°C) altimeter (cm) sea level (mb) 1 hr 3 hr 6 hr
6 hour
Temperature (ºC) Pressure Precipitation (cm)